Petrel — 2HDR6 — position and weather

sailwx.info

Track history (hours):
 
Tides and Currents Weather Stations Pressure Air Temp Water Temp Dewpoint Dewpoint Depression Visibility Wind Speed Wind Dir Waves Ship Positions

Oceanographic research ship Petrel (Isle of Man)

Last reported at 2020-Aug-02 13:30 UTC. Time now 2020-Aug-07 09:25 UTC.
Position N 26°21' W 079°43'.

Length 76 m; draft 7.7 m.

Type: Other ship. MMSI: 235102789.

Date/timePositionNaut miles runAvg speedWind from/ knotsBaromVisibWave heightAir tempDewpointWater temp
2020-Aug-02 13:30N 26°21' W 079°43'4 8.8
2020-Aug-02 13:00N 26°25' W 079°43'  
2020-Jul-31 00:26N 26°21' W 079°53'16 8.3
2020-Jul-30 22:30N 26°06' W 079°57'8 8.2
2020-Jul-30 21:30N 25°58' W 079°59'1111.4
2020-Jul-30 20:31N 25°47' W 080°02'6 5.6
2020-Jul-30 19:31N 25°41' W 080°03'  
2020-Jul-27 18:59N 27°55' W 082°26'0 0.0
2020-Jul-27 17:29N 27°55' W 082°26'0 0.0
2020-Jul-27 16:59N 27°55' W 082°26'0 0.0
2020-Jul-27 16:29N 27°55' W 082°26'0 0.0
2020-Jul-27 15:59N 27°55' W 082°26'0 0.0
2020-Jul-27 15:29N 27°55' W 082°26'0 0.0
2020-Jul-27 14:59N 27°55' W 082°26'0 0.0
2020-Jul-27 14:29N 27°55' W 082°26'0 0.0
2020-Jul-27 11:59N 27°55' W 082°26'0 0.0
2020-Jul-27 09:59N 27°55' W 082°26'0 0.0
2020-Jul-27 09:29N 27°55' W 082°26'0 0.0
2020-Jul-27 07:59N 27°55' W 082°26'0 0.0
2020-Jul-27 06:29N 27°55' W 082°26'0 0.0
2020-Jul-27 05:29N 27°55' W 082°26'0 0.0
2020-Jul-27 04:29N 27°55' W 082°26'0 0.0
2020-Jul-27 03:29N 27°55' W 082°26'0 0.0
2020-Jul-27 02:59N 27°55' W 082°26'0 0.0
2020-Jul-27 02:29N 27°55' W 082°26'0 0.0
2020-Jul-27 01:59N 27°55' W 082°26'0 0.0
2020-Jul-27 00:59N 27°55' W 082°26'0 0.0
2020-Jul-26 20:29N 27°55' W 082°26'0 0.0
2020-Jul-26 17:59N 27°55' W 082°26'0 0.0
2020-Jul-26 17:29N 27°55' W 082°26'0 0.0
2020-Jul-26 15:59N 27°55' W 082°26'0 0.0
2020-Jul-26 15:29N 27°55' W 082°26'1 0.3
2020-Jul-26 11:58N 27°56' W 082°27'0 0.0
2020-Jul-26 11:28N 27°56' W 082°27'0 0.0
2020-Jul-26 08:58N 27°56' W 082°27'0 0.0
2020-Jul-26 07:28N 27°56' W 082°27'0 0.0
2020-Jul-26 05:28N 27°56' W 082°27'0 0.0
2020-Jul-26 01:58N 27°56' W 082°27'0 0.0
2020-Jul-25 09:58N 27°56' W 082°27'0 0.0
2020-Jul-25 07:31N 27°56' W 082°27'0 0.0
2020-Jul-25 06:01N 27°56' W 082°27'0 0.0
2020-Jul-25 05:31N 27°56' W 082°27'0 0.0
2020-Jul-25 04:28N 27°56' W 082°27'0 0.0
2020-Jul-25 04:01N 27°56' W 082°27'0 0.0
2020-Jul-25 01:58N 27°56' W 082°27'0 0.0
2020-Jul-24 20:30N 27°56' W 082°27'0 0.0
2020-Jul-24 12:30N 27°56' W 082°27'0 0.0
2020-Jul-24 10:30N 27°56' W 082°27'0 0.0
2020-Jul-24 09:00N 27°56' W 082°27'0 0.0
2020-Jul-24 08:00N 27°56' W 082°27'0 0.0
2020-Jul-24 07:30N 27°56' W 082°27'0 0.0
2020-Jul-24 06:30N 27°56' W 082°27'0 0.0
2020-Jul-24 06:00N 27°56' W 082°27'0 0.0
2020-Jul-24 05:30N 27°56' W 082°27'0 0.0
2020-Jul-24 04:30N 27°56' W 082°27'0 0.0
2020-Jul-24 03:00N 27°56' W 082°27'0 0.0
2020-Jul-23 20:00N 27°56' W 082°27'0 0.0
2020-Jul-23 15:30N 27°56' W 082°27'  
Track history (hours):
 
Tides and Currents Weather Stations Pressure Air Temp Water Temp Dewpoint Dewpoint Depression Visibility Wind Speed Wind Dir Waves Ship Positions

Oceanographic research ship Petrel (Isle of Man)

Last reported at 2020-Aug-02 13:30 UTC. Time now 2020-Aug-07 09:25 UTC.
Position N 26°21' W 079°43'.

Length 76 m; draft 7.7 m.

Type: Other ship. MMSI: 235102789.

Date/timePositionNaut miles runAvg speedWind from/ knotsBaromVisibWave heightAir tempDewpointWater temp
2020-Aug-02 13:30N 26°21' W 079°43'4 8.8
2020-Aug-02 13:00N 26°25' W 079°43'  
2020-Jul-31 00:26N 26°21' W 079°53'16 8.3
2020-Jul-30 22:30N 26°06' W 079°57'8 8.2
2020-Jul-30 21:30N 25°58' W 079°59'1111.4
2020-Jul-30 20:31N 25°47' W 080°02'6 5.6
2020-Jul-30 19:31N 25°41' W 080°03'  
2020-Jul-27 18:59N 27°55' W 082°26'0 0.0
2020-Jul-27 17:29N 27°55' W 082°26'0 0.0
2020-Jul-27 16:59N 27°55' W 082°26'0 0.0
2020-Jul-27 16:29N 27°55' W 082°26'0 0.0
2020-Jul-27 15:59N 27°55' W 082°26'0 0.0
2020-Jul-27 15:29N 27°55' W 082°26'0 0.0
2020-Jul-27 14:59N 27°55' W 082°26'0 0.0
2020-Jul-27 14:29N 27°55' W 082°26'0 0.0
2020-Jul-27 11:59N 27°55' W 082°26'0 0.0
2020-Jul-27 09:59N 27°55' W 082°26'0 0.0
2020-Jul-27 09:29N 27°55' W 082°26'0 0.0
2020-Jul-27 07:59N 27°55' W 082°26'0 0.0
2020-Jul-27 06:29N 27°55' W 082°26'0 0.0
2020-Jul-27 05:29N 27°55' W 082°26'0 0.0
2020-Jul-27 04:29N 27°55' W 082°26'0 0.0
2020-Jul-27 03:29N 27°55' W 082°26'0 0.0
2020-Jul-27 02:59N 27°55' W 082°26'0 0.0
2020-Jul-27 02:29N 27°55' W 082°26'0 0.0
2020-Jul-27 01:59N 27°55' W 082°26'0 0.0
2020-Jul-27 00:59N 27°55' W 082°26'0 0.0
2020-Jul-26 20:29N 27°55' W 082°26'0 0.0
2020-Jul-26 17:59N 27°55' W 082°26'0 0.0
2020-Jul-26 17:29N 27°55' W 082°26'0 0.0
2020-Jul-26 15:59N 27°55' W 082°26'0 0.0
2020-Jul-26 15:29N 27°55' W 082°26'1 0.3
2020-Jul-26 11:58N 27°56' W 082°27'0 0.0
2020-Jul-26 11:28N 27°56' W 082°27'0 0.0
2020-Jul-26 08:58N 27°56' W 082°27'0 0.0
2020-Jul-26 07:28N 27°56' W 082°27'0 0.0
2020-Jul-26 05:28N 27°56' W 082°27'0 0.0
2020-Jul-26 01:58N 27°56' W 082°27'0 0.0
2020-Jul-25 09:58N 27°56' W 082°27'0 0.0
2020-Jul-25 07:31N 27°56' W 082°27'0 0.0
2020-Jul-25 06:01N 27°56' W 082°27'0 0.0
2020-Jul-25 05:31N 27°56' W 082°27'0 0.0
2020-Jul-25 04:28N 27°56' W 082°27'0 0.0
2020-Jul-25 04:01N 27°56' W 082°27'0 0.0
2020-Jul-25 01:58N 27°56' W 082°27'0 0.0
2020-Jul-24 20:30N 27°56' W 082°27'0 0.0
2020-Jul-24 12:30N 27°56' W 082°27'0 0.0
2020-Jul-24 10:30N 27°56' W 082°27'0 0.0
2020-Jul-24 09:00N 27°56' W 082°27'0 0.0
2020-Jul-24 08:00N 27°56' W 082°27'0 0.0
2020-Jul-24 07:30N 27°56' W 082°27'0 0.0
2020-Jul-24 06:30N 27°56' W 082°27'0 0.0
2020-Jul-24 06:00N 27°56' W 082°27'0 0.0
2020-Jul-24 05:30N 27°56' W 082°27'0 0.0
2020-Jul-24 04:30N 27°56' W 082°27'0 0.0
2020-Jul-24 03:00N 27°56' W 082°27'0 0.0
2020-Jul-23 20:00N 27°56' W 082°27'0 0.0
2020-Jul-23 15:30N 27°56' W 082°27'  

Dump ship's entire track history